Time;durP1;ratioP1;P1;durP2;ratioP2;P2;SDS_P1;SDS_P2;PMS_P1;PMS_P2;Temp;Humidity;BMP_temperature;BMP_pressure;BME280_temperature;BME280_humidity;BME280_pressure;Samples;Min_cycle;Max_cycle;Signal;HPM_P1;HPM_P2
2023/07/11 00:00:34;;;;;;;23.77;11.25;;;;;;;24.25;98.20;99053.41;6122221;23;20022;-92
2023/07/11 00:03:11;;;;;;;22.52;10.55;;;;;;;24.23;96.68;99058.09;6123615;23;20351;-92
2023/07/11 00:06:05;;;;;;;20.05;10.52;;;;;;;24.17;97.54;99054.00;6124105;23;20028;-95
2023/07/11 00:08:37;;;;;;;24.30;10.90;;;;;;;24.14;95.50;99050.69;6123396;22;20014;-93
2023/07/11 00:11:10;;;;;;;20.60;10.63;;;;;;;24.20;94.58;99061.03;6123217;23;20075;-93
2023/07/11 00:13:53;;;;;;;17.95;10.23;;;;;;;24.07;94.98;99044.88;6123305;23;20022;-92
2023/07/11 00:16:36;;;;;;;17.23;9.68;;;;;;;24.04;93.85;99055.09;6122110;22;20018;-94
2023/07/11 00:19:22;;;;;;;17.77;9.88;;;;;;;23.98;93.71;99051.00;6122951;23;20026;-94
2023/07/11 00:22:03;;;;;;;18.45;10.35;;;;;;;24.06;89.97;99064.00;6122677;23;20018;-93
2023/07/11 00:24:36;;;;;;;;;;;;;;;24.10;88.28;99068.22;6122970;23;20325;-93
2023/07/11 00:27:24;;;;;;;20.08;10.32;;;;;;;24.00;87.73;99038.16;6122271;23;19927;-95
2023/07/11 00:30:27;;;;;;;20.83;9.75;;;;;;;24.02;86.45;99044.34;6035367;23;20023;-93
2023/07/11 00:33:12;;;;;;;19.23;9.75;;;;;;;24.04;87.13;99045.09;6036159;23;20429;-94
2023/07/11 00:35:40;;;;;;;17.58;9.73;;;;;;;23.92;86.81;99032.47;6120529;23;20028;-93
2023/07/11 00:38:13;;;;;;;19.83;9.75;;;;;;;23.91;86.97;99039.75;6124180;22;20014;-95
2023/07/11 00:40:49;;;;;;;19.65;9.98;;;;;;;23.97;86.83;99055.56;6122577;23;20028;-93
2023/07/11 00:43:21;;;;;;;17.42;9.73;;;;;;;23.76;86.37;99030.06;6125212;23;20006;-92
2023/07/11 00:46:03;;;;;;;21.17;10.23;;;;;;;23.79;86.56;99054.28;6123472;22;20014;-94
2023/07/11 00:48:41;;;;;;;19.55;9.60;;;;;;;23.61;87.41;99037.50;6123760;23;20010;-93
2023/07/11 00:51:16;;;;;;;17.90;9.48;;;;;;;23.68;87.87;99059.63;6124288;23;20026;-93
2023/07/11 00:53:47;;;;;;;20.50;11.00;;;;;;;23.58;88.62;99059.47;6125268;23;20006;-93
2023/07/11 00:56:19;;;;;;;20.38;10.20;;;;;;;23.54;89.28;99058.84;6124880;23;20014;-93
2023/07/11 00:58:50;;;;;;;19.45;9.85;;;;;;;23.38;90.11;99047.44;6124986;22;20091;-93
2023/07/11 01:01:36;;;;;;;20.02;10.52;;;;;;;23.31;91.05;99051.56;6124886;23;20029;-93
2023/07/11 01:04:08;;;;;;;19.30;10.20;;;;;;;23.20;90.85;99037.94;6125707;22;20057;-94
2023/07/11 01:06:36;;;;;;;21.05;10.63;;;;;;;23.23;91.29;99054.88;6125629;23;20105;-94
2023/07/11 01:09:12;;;;;;;19.35;9.63;;;;;;;23.23;90.14;99059.44;6227135;23;20018;-92
2023/07/11 01:11:54;;;;;;;19.45;10.68;;;;;;;23.14;90.41;99044.72;6227575;23;20022;-93
2023/07/11 01:14:25;;;;;;;19.55;10.23;;;;;;;23.14;89.91;99042.84;6124318;22;20018;-94
2023/07/11 01:17:17;;;;;;;18.27;10.23;;;;;;;23.10;90.62;99046.78;6123664;23;20022;-93
2023/07/11 01:19:51;;;;;;;17.80;10.02;;;;;;;23.07;90.58;99040.69;6125714;22;20037;-94
2023/07/11 01:22:37;;;;;;;18.33;10.00;;;;;;;23.00;90.52;99031.25;6125166;23;20109;-93
2023/07/11 01:25:11;;;;;;;18.80;10.38;;;;;;;23.01;90.33;99038.44;6124659;22;19998;-93
2023/07/11 01:27:40;;;;;;;15.65;9.70;;;;;;;22.98;90.83;99034.06;6125656;23;20022;-94
2023/07/11 01:30:12;;;;;;;17.20;9.35;;;;;;;22.94;90.09;99030.75;6125445;22;20026;-93
2023/07/11 01:32:44;;;;;;;18.60;10.20;;;;;;;22.96;91.09;99057.72;6125574;23;20041;-93
2023/07/11 01:35:17;;;;;;;18.98;10.68;;;;;;;22.81;92.14;99042.59;6123803;23;20070;-94
2023/07/11 01:37:47;;;;;;;18.30;10.13;;;;;;;22.76;91.67;99042.94;6125312;23;20344;-92
2023/07/11 01:40:13;;;;;;;21.00;10.13;;;;;;;22.68;93.61;99034.47;6124807;23;20068;-93
2023/07/11 01:42:42;;;;;;;19.48;10.50;;;;;;;22.70;94.06;99037.94;6125555;23;20511;-93
2023/07/11 01:45:12;;;;;;;21.45;10.68;;;;;;;22.59;98.15;99035.16;6125432;23;20026;-94
2023/07/11 01:47:39;;;;;;;20.88;10.23;;;;;;;22.56;97.47;99033.53;6125456;23;20022;-94
2023/07/11 01:50:13;;;;;;;20.92;10.85;;;;;;;22.52;97.54;99027.47;6229347;23;20026;-94
2023/07/11 01:52:40;;;;;;;17.48;10.55;;;;;;;22.53;96.66;99023.78;6127683;23;20085;-93
2023/07/11 01:55:19;;;;;;;18.50;10.45;;;;;;;22.54;96.52;99027.38;6129513;22;20025;-92
2023/07/11 01:57:53;;;;;;;22.52;10.80;;;;;;;22.51;96.92;99019.44;6127186;23;20018;-94
2023/07/11 02:00:25;;;;;;;19.92;10.18;;;;;;;22.58;96.90;99026.16;6129191;23;20111;-92
2023/07/11 02:02:54;;;;;;;19.80;11.02;;;;;;;22.54;96.42;99019.22;6233701;23;20408;-94
2023/07/11 02:05:28;;;;;;;18.27;10.70;;;;;;;22.61;96.67;99039.50;6128149;23;20018;-92
2023/07/11 02:07:54;;;;;;;22.02;10.57;;;;;;;22.54;97.59;99016.53;6127521;23;20460;-94
2023/07/11 02:10:27;;;;;;;19.67;11.73;;;;;;;22.46;99.43;99011.66;6126813;22;20030;-92
2023/07/11 02:12:53;;;;;;;19.05;11.15;;;;;;;22.45;100.00;99015.34;6126268;23;20360;-94
2023/07/11 02:15:25;;;;;;;26.88;11.18;;;;;;;22.45;100.00;99015.34;6124842;23;20018;-93
2023/07/11 02:17:57;;;;;;;24.58;12.27;;;;;;;22.46;100.00;99021.63;6125380;22;20109;-94
2023/07/11 02:20:23;;;;;;;22.42;11.65;;;;;;;22.38;100.00;99011.34;6125415;23;20352;-93
2023/07/11 02:22:54;;;;;;;19.95;11.32;;;;;;;22.34;100.00;99013.41;6124817;23;20104;-94
2023/07/11 02:25:20;;;;;;;21.50;11.77;;;;;;;22.49;100.00;99038.53;6124792;23;20512;-94
2023/07/11 02:27:55;;;;;;;24.17;12.50;;;;;;;22.27;100.00;99011.22;6125535;23;20006;-94
2023/07/11 02:30:27;;;;;;;20.83;11.18;;;;;;;22.21;100.00;99006.25;6124384;23;20562;-93
2023/07/11 02:32:53;;;;;;;20.98;11.20;;;;;;;22.21;100.00;99014.38;6126065;23;20080;-91
2023/07/11 02:35:25;;;;;;;31.55;11.23;;;;;;;22.07;100.00;99012.63;6126138;23;20018;-93
2023/07/11 02:38:05;;;;;;;21.67;11.40;;;;;;;22.16;100.00;99030.91;6125845;23;20025;-93
2023/07/11 02:40:34;;;;;;;20.60;11.43;;;;;;;21.95;100.00;99009.81;6123777;23;20026;-93
2023/07/11 02:43:11;;;;;;;22.67;11.52;;;;;;;21.91;100.00;99013.69;6122789;23;20186;-93
2023/07/11 02:45:44;;;;;;;21.85;12.00;;;;;;;21.90;100.00;99014.69;6122811;23;20440;-93
2023/07/11 02:48:13;;;;;;;25.77;11.18;;;;;;;21.87;100.00;99012.19;6122790;23;20057;-94
2023/07/11 02:50:49;;;;;;;23.60;11.25;;;;;;;21.93;100.00;99016.31;6123451;22;20025;-92
2023/07/11 02:53:21;;;;;;;23.90;11.68;;;;;;;21.92;100.00;99015.44;6123402;23;20117;-96
2023/07/11 02:55:51;;;;;;;24.83;12.65;;;;;;;21.77;100.00;99011.06;6123495;23;20018;-94
2023/07/11 02:58:24;;;;;;;24.05;11.98;;;;;;;21.87;100.00;99016.72;6124824;22;20014;-93
2023/07/11 03:00:57;;;;;;;18.73;11.40;;;;;;;21.80;100.00;99021.72;6124259;23;20060;-93
2023/07/11 03:03:28;;;;;;;23.90;12.73;;;;;;;21.77;100.00;99024.59;6124857;23;20032;-91
2023/07/11 03:05:58;;;;;;;24.77;12.35;;;;;;;21.87;100.00;99050.09;6124002;23;20018;-94
2023/07/11 03:08:27;;;;;;;20.58;12.02;;;;;;;21.72;100.00;99032.19;6124359;22;20018;-93
2023/07/11 03:11:04;;;;;;;22.90;11.48;;;;;;;21.69;100.00;99029.72;6124667;23;20089;-94
2023/07/11 03:13:36;;;;;;;28.20;12.30;;;;;;;21.78;100.00;99042.59;6124577;23;20021;-93
2023/07/11 03:16:05;;;;;;;28.45;12.63;;;;;;;21.62;100.00;99029.25;6226984;23;20022;-93
2023/07/11 03:18:54;;;;;;;26.35;12.48;;;;;;;21.57;100.00;99030.53;6123992;22;20025;-94
2023/07/11 03:21:25;;;;;;;25.95;12.73;;;;;;;21.54;100.00;99024.34;6124682;23;20052;-93
2023/07/11 03:23:54;;;;;;;24.42;12.52;;;;;;;21.46;100.00;99032.13;6125374;23;20022;-93
2023/07/11 03:26:23;;;;;;;23.05;12.35;;;;;;;21.51;100.00;99057.06;6125953;23;20105;-92
2023/07/11 03:28:55;;;;;;;22.83;12.15;;;;;;;21.28;100.00;99025.22;6125605;22;20018;-94
2023/07/11 03:31:22;;;;;;;27.17;12.95;;;;;;;21.25;100.00;99025.41;6126380;23;20022;-92
2023/07/11 03:33:52;;;;;;;24.42;13.63;;;;;;;21.31;100.00;99027.72;6126691;23;20022;-92
2023/07/11 03:36:21;;;;;;;22.87;12.80;;;;;;;21.36;100.00;99028.28;6126590;23;20443;-92
2023/07/11 03:38:48;;;;;;;26.48;13.20;;;;;;;21.36;100.00;99022.88;6126330;22;20045;-91
2023/07/11 03:41:19;;;;;;;21.70;13.25;;;;;;;21.42;100.00;99044.13;6126501;23;20018;-93
2023/07/11 03:43:57;;;;;;;26.63;13.05;;;;;;;21.47;100.00;99046.50;6126827;23;20037;-93
2023/07/11 03:46:33;;;;;;;22.57;13.57;;;;;;;21.34;100.00;99038.34;6126669;22;20018;-94
2023/07/11 03:49:07;;;;;;;22.48;12.15;;;;;;;21.20;100.00;99031.13;6127260;23;20460;-92
2023/07/11 03:51:34;;;;;;;25.95;13.68;;;;;;;21.21;100.00;99034.69;6127289;23;20026;-93
2023/07/11 03:54:11;;;;;;;27.67;13.68;;;;;;;21.33;100.00;99050.13;6126102;23;20029;-92
2023/07/11 03:56:41;;;;;;;26.20;13.23;;;;;;;21.21;100.00;99024.78;6125833;23;20014;-92
2023/07/11 03:59:16;;;;;;;27.73;14.07;;;;;;;21.27;100.00;99028.88;6125699;23;20033;-93
2023/07/11 04:01:53;;;;;;;25.88;14.20;;;;;;;21.33;100.00;99040.16;6128922;22;20033;-93
2023/07/11 04:07:18;;;;;;;32.65;14.60;;;;;;;21.52;100.00;99047.94;6105487;22;20037;-93
2023/07/11 04:09:43;;;;;;;37.58;14.27;;;;;;;21.49;100.00;99039.16;6127477;23;20042;-93
2023/07/11 04:12:11;;;;;;;32.38;13.68;;;;;;;21.63;100.00;99054.47;6126897;23;20325;-93
2023/07/11 04:14:46;;;;;;;36.05;14.13;;;;;;;21.52;100.00;99023.59;6125742;23;20049;-92
2023/07/11 04:17:12;;;;;;;35.67;14.52;;;;;;;21.70;100.00;99051.22;6126052;23;20026;-93
2023/07/11 04:19:38;;;;;;;28.42;14.48;;;;;;;21.59;100.00;99025.88;6127258;23;20108;-93
2023/07/11 04:22:08;;;;;;;33.50;13.82;;;;;;;21.63;100.00;99036.41;6128225;23;20083;-94
2023/07/11 04:24:58;;;;;;;27.15;13.77;;;;;;;21.61;100.00;99023.94;6127926;22;20018;-92
2023/07/11 04:27:24;;;;;;;26.75;13.98;;;;;;;21.60;100.00;99022.19;6126601;23;20022;-94
2023/07/11 04:30:18;;;;;;;35.33;14.85;;;;;;;21.64;100.00;99026.44;6128033;22;20025;-93
2023/07/11 04:32:51;;;;;;;33.88;16.08;;;;;;;21.88;100.00;99032.88;6126984;23;20108;-92
2023/07/11 04:35:20;;;;;;;34.13;16.08;;;;;;;21.99;100.00;99025.81;6130378;23;20018;-94
2023/07/11 04:38:05;;;;;;;32.50;15.63;;;;;;;22.13;100.00;99029.31;6131212;22;20029;-94
2023/07/11 04:40:31;;;;;;;33.03;15.80;;;;;;;22.42;100.00;99039.06;6132815;23;20429;-91
2023/07/11 04:43:05;;;;;;;36.97;15.88;;;;;;;22.52;100.00;99037.44;6129413;22;20025;-93
2023/07/11 04:45:38;;;;;;;33.85;15.48;;;;;;;22.52;100.00;99029.31;6129130;23;20017;-93
2023/07/11 04:48:13;;;;;;;31.73;14.20;;;;;;;22.63;100.00;99040.25;6129343;22;20022;-94
2023/07/11 04:50:46;;;;;;;28.83;15.15;;;;;;;22.67;100.00;99039.03;6130769;23;20022;-94
2023/07/11 04:53:36;;;;;;;40.10;14.75;;;;;;;22.66;100.00;99031.00;6233337;22;20018;-95
2023/07/11 04:56:15;;;;;;;32.28;14.75;;;;;;;22.74;100.00;99043.03;6251540;22;20047;-93
2023/07/11 04:59:00;;;;;;;33.50;16.35;;;;;;;22.73;100.00;99029.63;6229724;23;20025;-94
2023/07/11 05:01:31;;;;;;;30.38;15.15;;;;;;;22.85;100.00;99034.13;6124855;23;20061;-94
2023/07/11 05:03:58;;;;;;;33.00;15.45;;;;;;;23.05;100.00;99029.09;6126243;23;20018;-93
2023/07/11 05:06:30;;;;;;;28.02;14.50;;;;;;;23.32;100.00;99037.88;6256951;22;20016;-92
2023/07/11 05:08:56;;;;;;;26.67;14.52;;;;;;;23.96;100.00;99053.84;6126270;23;20051;-92
2023/07/11 05:12:20;;;;;;;;;;;;;;;;;;;;;
2023/07/11 05:19:46;;;;;;;28.40;14.32;;;;;;;24.80;100.00;99057.16;6103993;23;20440;-93
2023/07/11 05:22:42;;;;;;;25.00;14.52;;;;;;;25.27;100.00;99042.53;6074349;23;20006;-95
2023/07/11 05:25:26;;;;;;;27.40;14.32;;;;;;;25.67;100.00;99055.50;6097917;23;20018;-94
2023/07/11 05:28:19;;;;;;;;;;;;;;;;;;;;;
2023/07/11 05:41:44;;;;;;;;;;;;;;;;;;;;;
2023/07/11 05:47:58;;;;;;;;;;;;;;;;;;;;;
2023/07/11 05:51:18;;;;;;;;;;;;;;;;;;;;;
2023/07/11 05:53:59;;;;;;;24.73;12.88;;;;;;;27.16;95.50;99048.75;5988909;23;20079;-96
2023/07/11 05:56:54;;;;;;;23.30;13.38;;;;;;;27.01;95.74;99033.78;5972064;23;20095;-93
2023/07/11 06:07:22;;;;;;;24.65;13.98;;;;;;;26.99;95.29;99047.56;5877147;24;20044;-93
2023/07/11 06:17:20;;;;;;;31.58;13.95;;;;;;;27.26;95.08;99026.97;5845979;24;20072;-93
2023/07/11 06:19:46;;;;;;;22.00;12.35;;;;;;;27.37;93.29;99045.97;5853995;24;20382;-94
2023/07/11 06:23:19;;;;;;;23.55;13.73;;;;;;;27.45;93.63;99020.66;5874412;24;20420;-94
2023/07/11 06:46:14;;;;;;;26.10;13.43;;;;;;;27.86;91.19;99013.19;6012823;23;20043;-95
2023/07/11 06:49:27;;;;;;;23.08;13.77;;;;;;;27.95;90.80;99012.31;6036117;23;20495;-95
2023/07/11 06:52:20;;;;;;;26.30;14.05;;;;;;;27.74;90.16;99015.19;6041518;23;20026;-93
2023/07/11 07:28:34;;;;;;;23.17;12.93;;;;;;;29.88;79.58;99016.97;5933918;24;20100;-94
2023/07/11 07:31:23;;;;;;;23.00;12.45;;;;;;;30.17;78.79;99018.56;5914892;24;20027;-94
2023/07/11 07:33:49;;;;;;;22.15;12.65;;;;;;;30.30;77.98;99008.03;5910966;24;20017;-92
2023/07/11 07:36:55;;;;;;;21.80;12.43;;;;;;;30.45;77.26;99018.44;5908734;24;20099;-94
2023/07/11 07:39:42;;;;;;;25.00;12.50;;;;;;;30.51;76.98;99006.78;5962059;24;20031;-91
2023/07/11 07:42:12;;;;;;;27.80;13.43;;;;;;;30.68;76.25;99038.78;6043293;23;20485;-95
2023/07/11 07:53:03;;;;;;;19.65;12.32;;;;;;;30.99;74.97;99004.44;5991868;24;20043;-96
2023/07/11 07:55:54;;;;;;;19.08;12.85;;;;;;;30.99;73.67;99002.56;5943898;24;20116;-94
2023/07/11 07:58:56;;;;;;;23.55;13.07;;;;;;;31.00;75.32;98997.94;6047463;23;20086;-93
2023/07/11 08:29:44;;;;;;;;;;;;;;;;;;;;;
2023/07/11 08:47:09;;;;;;;26.80;14.15;;;;;;;31.39;73.10;99014.69;5660007;25;20086;-95
2023/07/11 09:01:40;;;;;;;18.85;12.13;;;;;;;32.66;58.35;98984.91;5603753;25;20033;-95
2023/07/11 09:05:05;;;;;;;;;;;;;;;;;;;;;
2023/07/11 09:28:42;;;;;;;18.05;10.32;;;;;;;33.27;46.48;98963.13;6104791;23;20025;-95
2023/07/11 09:39:38;;;;;;;16.30;9.63;;;;;;;34.08;44.77;98980.88;5989070;23;20080;-96
2023/07/11 09:49:13;;;;;;;19.17;9.85;;;;;;;33.82;43.81;98972.19;5876913;24;20018;-94
2023/07/11 09:51:39;;;;;;;18.50;8.95;;;;;;;33.76;43.44;98960.84;5829597;24;20025;-94
2023/07/11 09:54:09;;;;;;;15.05;9.07;;;;;;;33.79;43.28;98961.50;5828465;24;20088;-96
2023/07/11 09:56:35;;;;;;;17.05;9.32;;;;;;;33.99;42.24;98975.66;5827709;24;20015;-94
2023/07/11 09:59:02;;;;;;;15.32;8.63;;;;;;;33.98;42.52;98958.22;5850402;24;20018;-94
2023/07/11 10:01:36;;;;;;;14.68;8.65;;;;;;;33.98;41.10;98969.25;5894858;23;20016;-94
2023/07/11 10:04:12;;;;;;;18.80;8.50;;;;;;;33.68;41.75;98963.69;5929738;24;20107;-94
2023/07/11 10:06:42;;;;;;;16.27;8.32;;;;;;;33.79;42.33;98964.25;6048470;23;20057;-94
2023/07/11 10:09:38;;;;;;;16.08;8.27;;;;;;;33.70;42.15;98952.44;6049533;23;20052;-95
2023/07/11 10:12:22;;;;;;;12.93;7.93;;;;;;;33.70;43.20;98956.09;6018413;23;20088;-96
2023/07/11 10:14:54;;;;;;;17.58;8.25;;;;;;;33.93;41.64;98953.25;5918856;23;20605;-93
2023/07/11 10:17:32;;;;;;;12.73;8.32;;;;;;;33.39;42.07;98963.53;6014732;23;20020;-95
2023/07/11 10:20:01;;;;;;;12.45;7.80;;;;;;;33.21;42.53;98972.94;6015411;23;20023;-94
2023/07/11 10:22:36;;;;;;;11.85;7.65;;;;;;;33.22;41.38;98958.13;6062686;23;20033;-94
2023/07/11 10:25:18;;;;;;;13.75;7.85;;;;;;;33.56;42.77;98976.16;6128286;23;20071;-93
2023/07/11 10:27:51;;;;;;;14.98;7.68;;;;;;;33.69;39.93;98953.50;6126021;23;20014;-96
2023/07/11 10:30:39;;;;;;;15.25;7.60;;;;;;;33.90;41.25;98953.66;6127201;23;20029;-95
2023/07/11 10:33:33;;;;;;;16.50;7.38;;;;;;;33.74;38.39;98951.03;6138800;23;20028;-94
2023/07/11 10:36:33;;;;;;;;;;;;;;;;;;;;;
2023/07/11 10:39:27;;;;;;;11.40;7.38;;;;;;;34.26;39.80;98938.31;6128213;22;20010;-94
2023/07/11 10:42:06;;;;;;;14.23;7.78;;;;;;;34.24;40.37;98934.88;6126634;23;20022;-93
2023/07/11 10:45:38;;;;;;;14.68;7.63;;;;;;;34.19;40.56;98937.34;6256974;22;20018;-94
2023/07/11 10:48:48;;;;;;;17.98;7.78;;;;;;;34.63;39.67;98948.41;6255101;22;20449;-93
2023/07/11 10:51:27;;;;;;;14.23;7.40;;;;;;;34.76;39.28;98928.38;6118127;23;20043;-94
2023/07/11 10:54:01;;;;;;;18.38;8.00;;;;;;;34.83;40.71;98925.72;6134719;23;20024;-93
2023/07/11 10:56:52;;;;;;;16.75;7.30;;;;;;;34.71;39.83;98928.97;6160701;23;20049;-95
2023/07/11 10:59:23;;;;;;;13.15;7.30;;;;;;;34.20;40.29;98928.00;6134737;23;20130;-94
2023/07/11 11:02:06;;;;;;;12.90;7.32;;;;;;;34.67;40.54;98935.09;6138907;23;20043;-94
2023/07/11 11:04:59;;;;;;;12.55;7.57;;;;;;;34.73;39.75;98935.16;6136667;23;20022;-93
2023/07/11 11:07:37;;;;;;;15.10;7.82;;;;;;;34.63;39.22;98928.22;6138175;23;20017;-94
2023/07/11 11:10:11;;;;;;;17.45;7.40;;;;;;;34.60;40.45;98929.44;6136351;23;20025;-94
2023/07/11 11:13:00;;;;;;;12.45;7.10;;;;;;;34.78;39.74;98915.25;6137811;23;20108;-93
2023/07/11 11:15:48;;;;;;;11.77;6.95;;;;;;;35.02;38.50;98922.31;6135946;23;20021;-94
2023/07/11 11:18:35;;;;;;;14.48;7.13;;;;;;;35.04;38.73;98922.13;6107352;23;20025;-94
2023/07/11 11:21:20;;;;;;;11.85;7.07;;;;;;;35.17;37.70;98928.69;6159231;22;20015;-95
2023/07/11 11:24:17;;;;;;;12.65;7.45;;;;;;;34.91;37.99;98909.88;6257423;22;20019;-93
2023/07/11 11:26:50;;;;;;;;;;;;;;;34.86;36.98;98915.13;6250249;22;20020;-95
2023/07/11 11:29:41;;;;;;;16.35;7.05;;;;;;;34.94;38.81;98903.97;6256966;22;19961;-95
2023/07/11 11:32:23;;;;;;;10.52;6.60;;;;;;;34.90;37.76;98918.38;6254145;22;20031;-94
2023/07/11 11:35:12;;;;;;;12.05;6.05;;;;;;;34.68;36.29;98898.09;6254660;22;20020;-94
2023/07/11 11:38:11;;;;;;;12.63;6.70;;;;;;;34.66;37.87;98901.09;6254569;22;20334;-94
2023/07/11 11:40:49;;;;;;;11.65;6.65;;;;;;;34.42;38.04;98893.94;6254335;22;20024;-95
2023/07/11 11:43:22;;;;;;;;;;;;;;;34.40;37.45;98898.81;6257667;22;20077;-95
2023/07/11 11:46:05;;;;;;;15.25;6.57;;;;;;;34.54;37.03;98883.25;6260192;22;19963;-95
2023/07/11 11:48:49;;;;;;;10.90;5.93;;;;;;;34.82;37.12;98874.28;6211145;23;20038;-94
2023/07/11 11:51:32;;;;;;;14.38;6.28;;;;;;;35.12;37.01;98891.63;6263378;22;20038;-94
2023/07/11 11:54:22;;;;;;;13.15;5.97;;;;;;;35.15;36.98;98877.41;6263116;22;20019;-94
2023/07/11 11:57:20;;;;;;;13.25;6.57;;;;;;;34.69;37.41;98899.84;6265151;22;20098;-93
2023/07/11 12:06:56;;;;;;;14.27;6.63;;;;;;;35.05;37.03;98861.16;6140149;23;20013;-96
2023/07/11 12:09:50;;;;;;;12.38;6.50;;;;;;;34.62;35.52;98872.09;6140013;23;20433;-95
2023/07/11 12:13:23;;;;;;;17.05;6.93;;;;;;;34.92;36.51;98889.50;6140307;23;20025;-94
2023/07/11 12:16:26;;;;;;;13.57;6.15;;;;;;;35.03;37.57;98862.41;6137891;23;20093;-95
2023/07/11 12:19:26;;;;;;;16.38;5.95;;;;;;;35.01;35.96;98875.56;6144317;23;20017;-96
2023/07/11 12:22:05;;;;;;;14.30;6.20;;;;;;;35.08;35.59;98854.38;6136467;23;20026;-95
2023/07/11 12:25:03;;;;;;;15.13;5.93;;;;;;;35.13;38.05;98852.75;6139809;23;20021;-93
2023/07/11 12:28:10;;;;;;;15.32;6.22;;;;;;;35.44;37.02;98865.38;6143520;23;20046;-94
2023/07/11 12:31:37;;;;;;;17.25;6.07;;;;;;;35.69;35.51;98863.03;6132240;23;20049;-95
2023/07/11 12:34:33;;;;;;;12.38;5.70;;;;;;;35.85;33.89;98861.91;6205594;23;20081;-94
2023/07/11 12:37:38;;;;;;;15.93;5.78;;;;;;;35.93;33.04;98858.09;6079799;23;20524;-95
2023/07/11 12:40:26;;;;;;;15.50;5.60;;;;;;;35.78;33.16;98852.66;6132931;23;20018;-95
2023/07/11 12:43:21;;;;;;;12.70;6.00;;;;;;;35.44;31.78;98864.50;6135228;23;20074;-94
2023/07/11 12:45:57;;;;;;;16.95;5.57;;;;;;;35.72;32.73;98856.25;6123284;23;20108;-95
2023/07/11 12:48:43;;;;;;;13.40;5.55;;;;;;;35.55;31.81;98861.22;6133969;23;20026;-95
2023/07/11 12:51:26;;;;;;;13.23;5.22;;;;;;;35.45;34.23;98849.63;6133336;23;20105;-95
2023/07/11 12:54:26;;;;;;;17.15;5.28;;;;;;;35.42;32.74;98845.34;6132554;23;20018;-94
2023/07/11 12:56:55;;;;;;;11.88;5.30;;;;;;;35.28;33.58;98836.06;6134291;23;20014;-95
2023/07/11 12:59:45;;;;;;;14.40;5.15;;;;;;;35.37;32.82;98843.19;6132134;23;20108;-94
2023/07/11 13:02:30;;;;;;;13.85;5.50;;;;;;;35.22;31.83;98839.66;6236566;23;20045;-94
2023/07/11 13:04:59;;;;;;;13.55;5.38;;;;;;;35.23;34.65;98829.44;6131917;23;20044;-94
2023/07/11 13:07:35;;;;;;;18.33;5.25;;;;;;;35.07;32.00;98836.94;6134105;23;20014;-94
2023/07/11 13:10:36;;;;;;;13.88;5.40;;;;;;;35.33;33.36;98838.28;6133606;23;20022;-96
2023/07/11 13:13:38;;;;;;;17.02;5.13;;;;;;;35.37;31.99;98847.84;6131272;23;20029;-94
2023/07/11 13:16:12;;;;;;;14.20;4.90;;;;;;;35.38;32.01;98833.84;6155035;22;20056;-93
2023/07/11 13:18:45;;;;;;;11.73;4.60;;;;;;;35.25;32.16;98853.06;6237996;23;20021;-94
2023/07/11 13:21:16;;;;;;;13.70;4.72;;;;;;;35.41;32.08;98846.41;6133968;22;20022;-93
2023/07/11 13:23:45;;;;;;;14.95;4.80;;;;;;;35.55;31.90;98853.75;6132757;23;20053;-95
2023/07/11 13:29:41;;;;;;;12.60;4.90;;;;;;;35.65;31.53;98858.97;6133271;23;19998;-94
2023/07/11 13:32:16;;;;;;;11.18;5.10;;;;;;;35.75;31.14;98839.25;6130554;23;20052;-95
2023/07/11 13:34:51;;;;;;;11.20;4.93;;;;;;;35.81;30.98;98848.63;6132243;23;20018;-96
2023/07/11 13:37:24;;;;;;;16.42;5.03;;;;;;;35.78;30.62;98848.00;6237866;23;20022;-94
2023/07/11 13:39:53;;;;;;;16.08;5.10;;;;;;;35.79;31.97;98848.88;6237272;23;20018;-94
2023/07/11 13:42:24;;;;;;;12.68;4.40;;;;;;;35.65;30.87;98839.59;6132660;23;20021;-94
2023/07/11 13:44:59;;;;;;;12.45;4.13;;;;;;;35.85;31.61;98858.25;6128537;23;20022;-94
2023/07/11 13:47:33;;;;;;;14.48;4.85;;;;;;;35.56;29.66;98862.91;6237625;23;20029;-93
2023/07/11 13:50:10;;;;;;;15.05;4.40;;;;;;;35.12;29.88;98839.94;6237688;23;20022;-96
2023/07/11 13:52:46;;;;;;;13.10;4.88;;;;;;;35.32;29.99;98837.38;6129201;23;20038;-93
2023/07/11 13:55:17;;;;;;;15.73;4.50;;;;;;;35.58;30.91;98833.97;6136222;23;20030;-93
2023/07/11 13:57:49;;;;;;;11.27;4.65;;;;;;;35.90;32.67;98853.81;6134010;23;20083;-94
2023/07/11 14:00:21;;;;;;;11.13;4.95;;;;;;;36.06;31.08;98840.72;6129001;23;20018;-94
2023/07/11 14:02:51;;;;;;;16.27;5.28;;;;;;;35.93;31.66;98834.03;6128124;23;20137;-94
2023/07/11 14:05:25;;;;;;;15.38;4.97;;;;;;;35.94;30.98;98848.75;6129389;23;20029;-94
2023/07/11 14:07:57;;;;;;;11.60;4.78;;;;;;;36.13;31.52;98848.06;6129387;23;20028;-94
2023/07/11 14:10:30;;;;;;;14.10;5.10;;;;;;;36.04;31.04;98829.84;6131293;23;20076;-94
2023/07/11 14:12:58;;;;;;;14.77;5.03;;;;;;;35.94;31.04;98840.44;6233941;23;20031;-94
2023/07/11 14:15:29;;;;;;;14.25;5.35;;;;;;;35.68;31.33;98833.69;6132163;23;20092;-94
2023/07/11 14:18:02;;;;;;;17.85;5.07;;;;;;;35.77;29.67;98838.00;6232719;23;20509;-94
2023/07/11 14:20:36;;;;;;;19.88;4.85;;;;;;;35.97;30.25;98854.72;6129739;23;20045;-94
2023/07/11 14:23:05;;;;;;;14.43;4.78;;;;;;;35.85;31.59;98841.66;6126851;23;20028;-94
2023/07/11 14:25:38;;;;;;;17.35;5.18;;;;;;;36.05;30.85;98837.09;6133553;23;20039;-93
2023/07/11 14:28:10;;;;;;;14.60;4.63;;;;;;;35.82;30.72;98842.06;6132519;23;20109;-94
2023/07/11 14:30:57;;;;;;;15.05;4.88;;;;;;;35.91;30.54;98855.53;6126200;23;20026;-94
2023/07/11 14:33:33;;;;;;;11.63;4.57;;;;;;;35.71;30.04;98832.41;6120909;23;20026;-94
2023/07/11 14:36:02;;;;;;;14.95;4.72;;;;;;;35.89;30.51;98842.94;6123780;23;20068;-95
2023/07/11 14:38:52;;;;;;;13.25;5.13;;;;;;;36.02;31.25;98836.66;6127192;23;20085;-92
2023/07/11 14:41:48;;;;;;;11.33;4.73;;;;;;;35.67;31.42;98842.16;6131837;23;20026;-93
2023/07/11 14:44:30;;;;;;;13.02;4.90;;;;;;;35.56;30.83;98840.78;6131966;23;20049;-94
2023/07/11 14:47:00;;;;;;;14.50;4.57;;;;;;;35.81;31.55;98843.09;6129750;23;20048;-95
2023/07/11 14:49:29;;;;;;;12.43;4.85;;;;;;;36.06;31.46;98840.72;6132161;23;20053;-94
2023/07/11 14:51:56;;;;;;;12.23;4.35;;;;;;;35.73;31.08;98833.06;6236394;23;20065;-94
2023/07/11 14:54:29;;;;;;;10.18;4.47;;;;;;;35.99;32.55;98835.16;6132385;23;20049;-94
2023/07/11 14:57:03;;;;;;;10.93;4.82;;;;;;;35.63;32.02;98836.16;6134062;23;20018;-94
2023/07/11 14:59:37;;;;;;;11.80;4.43;;;;;;;35.41;32.18;98835.34;6125089;23;20436;-94
2023/07/11 15:02:23;;;;;;;13.63;5.25;;;;;;;35.24;32.60;98834.75;6124161;23;20064;-95
2023/07/11 15:04:52;;;;;;;13.68;4.60;;;;;;;35.50;32.84;98820.31;6124042;23;20117;-94
2023/07/11 15:07:25;;;;;;;13.55;4.63;;;;;;;35.29;32.07;98837.81;6125002;23;20021;-94
2023/07/11 15:09:54;;;;;;;15.18;4.53;;;;;;;35.26;32.40;98823.50;6129401;23;20049;-94
2023/07/11 15:12:25;;;;;;;16.10;5.28;;;;;;;35.46;32.25;98838.38;6227347;23;20356;-95
2023/07/11 15:14:57;;;;;;;14.65;4.95;;;;;;;35.62;32.74;98815.09;6123576;23;20025;-94
2023/07/11 15:17:28;;;;;;;16.95;4.10;;;;;;;36.14;31.29;98830.38;6124751;23;20022;-95
2023/07/11 15:20:08;;;;;;;14.60;4.50;;;;;;;36.00;31.25;98820.22;6125757;23;20022;-95
2023/07/11 15:22:43;;;;;;;15.35;4.47;;;;;;;36.01;30.75;98818.34;6124059;23;20114;-96
2023/07/11 15:25:17;;;;;;;15.05;4.05;;;;;;;36.19;30.05;98838.06;6124762;23;20116;-94
2023/07/11 15:27:44;;;;;;;15.15;4.45;;;;;;;35.81;31.26;98824.63;6125359;23;20029;-96
2023/07/11 15:30:28;;;;;;;14.20;4.10;;;;;;;35.74;28.48;98834.75;6124333;23;20018;-96
2023/07/11 15:33:16;;;;;;;21.60;4.40;;;;;;;35.97;29.01;98823.44;6126469;23;20022;-94
2023/07/11 15:35:45;;;;;;;20.25;4.10;;;;;;;36.06;29.03;98821.34;6125793;23;20018;-94
2023/07/11 15:38:28;;;;;;;18.65;4.45;;;;;;;36.17;29.39;98818.03;6125949;23;20018;-94
2023/07/11 15:41:02;;;;;;;13.77;4.40;;;;;;;36.22;29.81;98826.59;6123684;23;20025;-93
2023/07/11 15:43:40;;;;;;;13.10;4.63;;;;;;;36.43;29.42;98846.91;6123974;23;20029;-95